Time;durP1;ratioP1;P1;durP2;ratioP2;P2;SDS_P1;SDS_P2;PMS_P1;PMS_P2;Temp;Humidity;BMP_temperature;BMP_pressure;BME280_temperature;BME280_humidity;BME280_pressure;Samples;Min_cycle;Max_cycle;Signal;HPM_P1;HPM_P2
2022/12/28 00:01:50;;;;;;;12.60;6.10;;;5.80;99.90;;;;;;5000765;28;89199;-31
2022/12/28 00:04:16;;;;;;;8.25;6.68;;;5.80;99.90;;;;;;4999850;28;89406;-33
2022/12/28 00:06:42;;;;;;;10.18;6.10;;;5.70;99.90;;;;;;4999827;28;90358;-31
2022/12/28 00:09:09;;;;;;;8.55;6.18;;;5.70;99.90;;;;;;4999985;28;89777;-32
2022/12/28 00:11:35;;;;;;;13.70;6.18;;;5.70;99.90;;;;;;5000096;28;88696;-32
2022/12/28 00:14:01;;;;;;;12.65;6.95;;;5.70;99.90;;;;;;5000738;28;88854;-33
2022/12/28 00:16:29;;;;;;;10.10;6.60;;;5.70;99.90;;;;;;4999551;28;90748;-32
2022/12/28 00:18:57;;;;;;;9.50;6.35;;;5.70;99.90;;;;;;4999446;28;89981;-32
2022/12/28 00:21:23;;;;;;;9.30;6.43;;;5.60;99.90;;;;;;5000681;28;88729;-32
2022/12/28 00:23:50;;;;;;;11.65;6.82;;;5.60;99.90;;;;;;5000684;28;89161;-32
2022/12/28 00:26:16;;;;;;;8.00;7.05;;;5.60;99.90;;;;;;4999734;28;90267;-32
2022/12/28 00:28:41;;;;;;;13.98;7.60;;;5.60;99.90;;;;;;4999499;28;89441;-32
2022/12/28 00:31:07;;;;;;;11.45;6.30;;;5.60;99.90;;;;;;4999148;28;90071;-33
2022/12/28 00:33:33;;;;;;;14.15;6.93;;;5.50;99.90;;;;;;4999692;28;88686;-33
2022/12/28 00:36:00;;;;;;;11.75;6.60;;;5.60;99.90;;;;;;4999769;28;91228;-32
2022/12/28 00:38:28;;;;;;;9.27;6.50;;;5.50;99.90;;;;;;4999896;28;89684;-30
2022/12/28 00:40:53;;;;;;;7.72;6.50;;;5.50;99.90;;;;;;4999107;28;89695;-32
2022/12/28 00:43:19;;;;;;;15.65;7.53;;;5.60;99.90;;;;;;5000140;28;89000;-31
2022/12/28 00:45:46;;;;;;;10.07;6.93;;;5.60;99.90;;;;;;4998660;28;89943;-33
2022/12/28 00:48:12;;;;;;;11.13;6.72;;;5.60;99.90;;;;;;4999449;28;89707;-31
2022/12/28 00:50:38;;;;;;;10.68;7.35;;;5.50;99.90;;;;;;4999343;28;89463;-31
2022/12/28 00:53:03;;;;;;;11.55;6.40;;;5.60;99.90;;;;;;4999038;28;88777;-31
2022/12/28 00:55:29;;;;;;;12.20;7.60;;;5.50;99.90;;;;;;4998962;28;90075;-32
2022/12/28 00:57:58;;;;;;;13.95;7.00;;;5.50;99.90;;;;;;4999599;28;89341;-32
2022/12/28 01:00:24;;;;;;;13.95;7.75;;;5.60;99.90;;;;;;4999246;28;89046;-34
2022/12/28 01:02:49;;;;;;;10.57;7.25;;;5.50;99.90;;;;;;5000100;28;89021;-33
2022/12/28 01:05:15;;;;;;;9.43;6.82;;;5.50;99.90;;;;;;4999105;28;90020;-33
2022/12/28 01:07:40;;;;;;;8.15;7.28;;;5.50;99.90;;;;;;4998678;28;89603;-33
2022/12/28 01:10:07;;;;;;;12.32;6.97;;;5.50;99.90;;;;;;4999603;28;90440;-32
2022/12/28 01:12:32;;;;;;;10.98;7.40;;;5.50;99.90;;;;;;4999168;28;90333;-33
2022/12/28 01:14:58;;;;;;;13.90;7.90;;;5.60;99.90;;;;;;4999926;28;90675;-31
2022/12/28 01:17:24;;;;;;;10.63;6.60;;;5.60;99.90;;;;;;4997512;28;90795;-33
2022/12/28 01:19:49;;;;;;;13.10;7.50;;;5.60;99.90;;;;;;4999035;28;90246;-34
2022/12/28 01:22:15;;;;;;;12.75;7.43;;;5.60;99.90;;;;;;4999273;28;88674;-32
2022/12/28 01:24:40;;;;;;;12.32;8.02;;;5.70;99.90;;;;;;4998977;28;90168;-33
2022/12/28 01:27:06;;;;;;;8.45;6.75;;;5.70;99.90;;;;;;4999500;28;89564;-31
2022/12/28 01:29:32;;;;;;;15.65;8.48;;;5.70;99.90;;;;;;4998465;28;89536;-31
2022/12/28 01:31:58;;;;;;;15.98;7.20;;;5.70;99.90;;;;;;4998959;28;88702;-32
2022/12/28 01:34:23;;;;;;;11.52;7.07;;;5.70;99.90;;;;;;4998573;28;91168;-35
2022/12/28 01:36:49;;;;;;;9.60;6.68;;;5.70;99.90;;;;;;4998889;28;90201;-31
2022/12/28 01:39:14;;;;;;;7.05;6.30;;;5.80;99.90;;;;;;4999741;28;89830;-32
2022/12/28 01:41:41;;;;;;;16.17;7.40;;;5.80;99.90;;;;;;4998589;28;90276;-33
2022/12/28 01:44:09;;;;;;;9.95;6.60;;;5.80;99.90;;;;;;4997520;28;90029;-33
2022/12/28 01:46:51;;;;;;;8.82;6.68;;;5.80;99.90;;;;;;4999141;28;89622;-31
2022/12/28 01:49:33;;;;;;;11.88;7.18;;;5.80;99.90;;;;;;4999487;28;88965;-31
2022/12/28 01:52:29;;;;;;;9.73;7.40;;;5.80;99.90;;;;;;4996323;28;87521;-33
2022/12/28 01:55:05;;;;;;;14.80;8.10;;;5.70;99.90;;;;;;4998614;28;89826;-31
2022/12/28 01:57:37;;;;;;;9.52;6.55;;;5.80;99.90;;;;;;4986201;28;89402;-32
2022/12/28 02:00:11;;;;;;;9.13;6.68;;;5.80;99.90;;;;;;5002512;28;89428;-33
2022/12/28 02:02:38;;;;;;;9.13;6.97;;;5.90;99.90;;;;;;4989595;28;89358;-34
2022/12/28 02:05:04;;;;;;;18.17;8.50;;;5.80;99.90;;;;;;5002057;28;90242;-31
2022/12/28 02:07:51;;;;;;;10.82;7.00;;;5.90;99.90;;;;;;5001517;28;90824;-31
2022/12/28 02:10:18;;;;;;;10.93;6.65;;;5.90;99.90;;;;;;5002298;28;89758;-34
2022/12/28 02:12:44;;;;;;;11.35;6.72;;;5.90;99.90;;;;;;5002129;28;88967;-33
2022/12/28 02:15:10;;;;;;;12.43;7.32;;;5.90;99.90;;;;;;5002362;28;90488;-32
2022/12/28 02:17:35;;;;;;;12.20;7.78;;;6.00;99.90;;;;;;5002003;28;89759;-32
2022/12/28 02:20:01;;;;;;;8.98;6.70;;;5.90;99.90;;;;;;5001420;28;89053;-32
2022/12/28 02:22:33;;;;;;;13.43;5.68;;;5.90;99.90;;;;;;5002085;28;89184;-34
2022/12/28 02:25:35;;;;;;;9.75;7.50;;;6.00;99.90;;;;;;5002483;28;90082;-32
2022/12/28 02:28:28;;;;;;;14.68;8.00;;;5.90;99.90;;;;;;4988568;28;89552;-33
2022/12/28 02:31:05;;;;;;;7.93;5.30;;;6.00;99.90;;;;;;5001211;28;90990;-31
2022/12/28 02:33:43;;;;;;;8.55;7.47;;;6.00;99.90;;;;;;5001287;28;89117;-31
2022/12/28 02:36:38;;;;;;;13.82;6.68;;;6.00;99.90;;;;;;5002196;28;89096;-33
2022/12/28 02:39:18;;;;;;;15.73;7.90;;;6.00;99.90;;;;;;5001396;28;89792;-32
2022/12/28 02:41:45;;;;;;;10.55;5.05;;;6.00;99.90;;;;;;5001248;28;89528;-32
2022/12/28 02:44:11;;;;;;;8.52;6.43;;;6.10;99.90;;;;;;5001465;28;88805;-31
2022/12/28 02:52:26;;;;;;;13.57;7.38;;;6.10;99.90;;;;;;5001781;28;89501;-31
2022/12/28 02:58:21;;;;;;;11.35;7.15;;;6.10;99.90;;;;;;4993214;28;90311;-31
2022/12/28 03:01:27;;;;;;;14.80;8.02;;;6.10;99.90;;;;;;5001257;28;90782;-32
2022/12/28 03:03:56;;;;;;;9.40;7.20;;;6.10;99.90;;;;;;5001597;28;90156;-32
2022/12/28 03:09:29;;;;;;;9.98;8.07;;;6.10;99.90;;;;;;5001119;28;90273;-30
2022/12/28 03:12:18;;;;;;;8.00;7.22;;;6.00;99.90;;;;;;4999199;28;89865;-31
2022/12/28 03:14:52;;;;;;;13.95;7.15;;;6.10;99.90;;;;;;4989678;28;89201;-34
2022/12/28 03:31:26;;;;;;;13.32;9.95;;;6.20;99.90;;;;;;5000958;28;90188;-35
2022/12/28 03:34:05;;;;;;;14.43;8.90;;;6.20;99.90;;;;;;5000667;28;89345;-32
2022/12/28 03:36:58;;;;;;;12.57;9.02;;;6.20;99.90;;;;;;5000551;28;89914;-32
2022/12/28 03:39:29;;;;;;;15.65;8.82;;;6.30;99.90;;;;;;5001234;28;89328;-37
2022/12/28 03:44:59;;;;;;;11.82;8.75;;;6.20;99.90;;;;;;5000015;28;90855;-33
2022/12/28 03:47:28;;;;;;;11.88;8.20;;;6.30;99.90;;;;;;5000524;28;89613;-33
2022/12/28 03:49:53;;;;;;;12.70;8.77;;;6.30;99.90;;;;;;5001451;28;90361;-31
2022/12/28 03:52:20;;;;;;;13.00;9.32;;;6.30;99.90;;;;;;4999119;28;89829;-32
2022/12/28 03:54:46;;;;;;;11.45;9.50;;;6.30;99.90;;;;;;4999751;28;90398;-32
2022/12/28 03:57:11;;;;;;;9.45;8.50;;;6.30;99.90;;;;;;5000242;28;90502;-32
2022/12/28 03:59:37;;;;;;;17.83;9.40;;;6.40;99.90;;;;;;5000054;28;88990;-34
2022/12/28 04:02:02;;;;;;;10.43;8.18;;;6.40;99.90;;;;;;5000774;28;89723;-32
2022/12/28 04:04:28;;;;;;;9.70;8.75;;;6.40;99.90;;;;;;5000559;28;91479;-31
2022/12/28 04:06:53;;;;;;;10.98;8.35;;;6.40;99.90;;;;;;5000511;28;90817;-34
2022/12/28 04:09:19;;;;;;;14.43;8.93;;;6.40;99.90;;;;;;5000742;28;88392;-32
2022/12/28 04:11:45;;;;;;;12.23;8.93;;;6.50;99.90;;;;;;4999602;28;90267;-34
2022/12/28 04:14:10;;;;;;;10.65;7.78;;;6.50;99.90;;;;;;5000541;28;89710;-34
2022/12/28 04:16:36;;;;;;;13.35;8.50;;;6.50;99.90;;;;;;5000211;28;89768;-34
2022/12/28 04:19:01;;;;;;;11.82;7.65;;;6.50;99.90;;;;;;5000193;28;89432;-32
2022/12/28 04:21:27;;;;;;;8.55;7.25;;;6.50;99.90;;;;;;4998773;28;91146;-33
2022/12/28 04:23:52;;;;;;;9.68;7.65;;;6.50;99.90;;;;;;4997740;28;90346;-33
2022/12/28 04:26:18;;;;;;;10.75;6.85;;;6.50;99.90;;;;;;4999730;28;91332;-32
2022/12/28 04:28:44;;;;;;;9.13;6.40;;;6.50;99.90;;;;;;5000147;28;89280;-31
2022/12/28 04:31:12;;;;;;;7.82;6.63;;;6.60;99.90;;;;;;4999877;28;89879;-33
2022/12/28 04:33:38;;;;;;;6.50;5.88;;;6.60;99.90;;;;;;4999781;28;90015;-34
2022/12/28 04:36:15;;;;;;;7.57;6.88;;;6.60;99.90;;;;;;4999634;28;89502;-31
2022/12/28 04:38:41;;;;;;;7.45;6.00;;;6.60;99.90;;;;;;5000359;28;88809;-32
2022/12/28 04:41:09;;;;;;;8.13;6.47;;;6.60;99.90;;;;;;5000785;28;90168;-31
2022/12/28 04:43:35;;;;;;;7.57;6.00;;;6.60;99.90;;;;;;4999122;28;90535;-33
2022/12/28 04:46:03;;;;;;;9.00;7.15;;;6.60;99.90;;;;;;5000009;28;90165;-33
2022/12/28 04:48:29;;;;;;;7.07;5.85;;;6.60;99.90;;;;;;5000268;28;88381;-33
2022/12/28 04:50:55;;;;;;;7.05;6.40;;;6.70;99.90;;;;;;4999784;28;90283;-32
2022/12/28 04:53:21;;;;;;;6.07;5.43;;;6.70;99.90;;;;;;4999342;28;89858;-35
2022/12/28 04:55:47;;;;;;;6.95;5.13;;;6.70;99.90;;;;;;4999228;28;89620;-34
2022/12/28 04:58:13;;;;;;;6.57;5.45;;;6.80;99.90;;;;;;4999384;28;89046;-34
2022/12/28 05:00:38;;;;;;;6.05;5.45;;;6.70;99.90;;;;;;4999878;28;91200;-31
2022/12/28 05:03:04;;;;;;;6.20;5.60;;;6.80;99.90;;;;;;4999378;28;89664;-31
2022/12/28 05:05:30;;;;;;;6.38;5.80;;;6.90;99.90;;;;;;4999098;28;88767;-31
2022/12/28 05:07:59;;;;;;;6.82;6.20;;;6.80;99.90;;;;;;4999644;28;89719;-31
2022/12/28 05:10:24;;;;;;;6.95;5.75;;;6.90;99.90;;;;;;4999527;28;90327;-33
2022/12/28 05:12:50;;;;;;;5.28;4.80;;;6.90;99.90;;;;;;4999249;28;89537;-31
2022/12/28 05:15:16;;;;;;;6.40;5.38;;;6.90;99.90;;;;;;4999527;28;89277;-34
2022/12/28 05:17:41;;;;;;;6.97;5.13;;;6.90;99.90;;;;;;4999154;28;87684;-32
2022/12/28 05:20:07;;;;;;;5.10;4.60;;;6.90;99.90;;;;;;5000130;28;90237;-32
2022/12/28 05:22:33;;;;;;;7.95;7.15;;;6.90;99.90;;;;;;4998612;28;89879;-33
2022/12/28 05:24:58;;;;;;;5.47;4.97;;;6.90;99.90;;;;;;4999275;28;89530;-31
2022/12/28 05:27:24;;;;;;;6.47;5.43;;;6.90;99.90;;;;;;4999480;28;89656;-31
2022/12/28 05:29:50;;;;;;;6.18;5.60;;;6.90;99.90;;;;;;4999691;28;90838;-32
2022/12/28 05:32:15;;;;;;;5.45;4.95;;;7.00;99.90;;;;;;4998505;28;90389;-31
2022/12/28 05:34:41;;;;;;;6.47;5.85;;;7.00;99.90;;;;;;4998023;28;90637;-33
2022/12/28 05:37:06;;;;;;;7.45;5.75;;;7.10;99.90;;;;;;4999937;28;90111;-31
2022/12/28 05:39:32;;;;;;;6.22;5.78;;;7.10;99.90;;;;;;4999379;28;90368;-31
2022/12/28 05:41:59;;;;;;;6.25;5.68;;;7.20;99.90;;;;;;4999470;28;89287;-32
2022/12/28 05:44:29;;;;;;;6.13;5.55;;;7.20;99.90;;;;;;4999097;28;88598;-31
2022/12/28 05:46:54;;;;;;;6.57;6.00;;;7.20;99.90;;;;;;4999661;28;89182;-31
2022/12/28 05:49:20;;;;;;;6.72;6.05;;;7.20;99.90;;;;;;4998977;28;90188;-31
2022/12/28 05:51:49;;;;;;;8.80;6.20;;;7.30;99.90;;;;;;4998589;28;89940;-34
2022/12/28 05:54:14;;;;;;;6.18;5.40;;;7.30;99.90;;;;;;4999675;28;88846;-31
2022/12/28 05:56:40;;;;;;;6.20;5.60;;;7.30;99.90;;;;;;4998126;28;89864;-32
2022/12/28 05:59:06;;;;;;;8.45;7.13;;;7.30;99.90;;;;;;4998690;28;90018;-32
2022/12/28 06:01:34;;;;;;;6.85;6.15;;;7.30;99.90;;;;;;4998440;28;89372;-32
2022/12/28 06:04:02;;;;;;;6.57;6.00;;;7.40;99.90;;;;;;4999093;28;89422;-31
2022/12/28 06:06:30;;;;;;;7.57;6.88;;;7.40;99.90;;;;;;4998488;28;87649;-32
2022/12/28 06:08:55;;;;;;;7.03;6.32;;;7.40;99.90;;;;;;4998345;28;90367;-34
2022/12/28 06:11:23;;;;;;;7.43;6.82;;;7.40;99.90;;;;;;4998636;28;88433;-31
2022/12/28 06:13:50;;;;;;;6.50;5.47;;;7.40;99.90;;;;;;4998511;28;89703;-32
2022/12/28 06:16:21;;;;;;;8.52;7.07;;;7.50;99.90;;;;;;4998431;28;89504;-33
2022/12/28 06:18:47;;;;;;;8.77;6.70;;;7.50;99.90;;;;;;4998050;28;89499;-33
2022/12/28 06:21:21;;;;;;;8.55;7.45;;;7.50;99.90;;;;;;4998520;28;90572;-32
2022/12/28 06:23:47;;;;;;;9.70;7.57;;;7.50;99.90;;;;;;4997826;28;91176;-32
2022/12/28 06:26:16;;;;;;;7.07;6.47;;;7.50;99.90;;;;;;4998457;28;87791;-32
2022/12/28 06:28:42;;;;;;;7.53;6.82;;;7.60;99.90;;;;;;4998270;28;90729;-35
2022/12/28 06:31:17;;;;;;;8.15;7.43;;;7.60;99.90;;;;;;4998494;28;89263;-32
2022/12/28 06:33:44;;;;;;;6.82;6.20;;;7.60;99.90;;;;;;4997460;28;89593;-33
2022/12/28 06:36:22;;;;;;;8.38;7.57;;;7.60;99.90;;;;;;4998793;28;88342;-31
2022/12/28 06:38:49;;;;;;;8.27;7.47;;;7.60;99.90;;;;;;4998949;28;90137;-34
2022/12/28 06:41:16;;;;;;;7.70;7.00;;;7.70;99.90;;;;;;4998503;28;91271;-33
2022/12/28 06:43:43;;;;;;;7.00;6.40;;;7.70;99.90;;;;;;4997845;28;90851;-33
2022/12/28 06:46:10;;;;;;;8.60;7.80;;;7.70;99.90;;;;;;5000361;28;89641;-33
2022/12/28 06:48:37;;;;;;;8.85;8.00;;;7.80;99.90;;;;;;5002015;28;89491;-32
2022/12/28 06:51:08;;;;;;;9.45;7.72;;;7.70;99.90;;;;;;5001650;28;89745;-34
2022/12/28 06:53:36;;;;;;;8.30;7.50;;;7.70;99.90;;;;;;5001569;28;89919;-31
2022/12/28 06:56:04;;;;;;;7.30;6.65;;;7.80;99.90;;;;;;5001537;28;89316;-34
2022/12/28 06:58:31;;;;;;;8.65;7.80;;;7.80;99.90;;;;;;5001074;28;91218;-31
2022/12/28 07:01:04;;;;;;;7.55;6.85;;;7.80;99.90;;;;;;5002032;28;89724;-33
2022/12/28 07:03:29;;;;;;;9.70;8.77;;;7.80;99.90;;;;;;5000808;28;90356;-32
2022/12/28 07:06:00;;;;;;;8.48;7.75;;;7.90;99.90;;;;;;5001935;28;89336;-31
2022/12/28 07:08:26;;;;;;;7.97;7.28;;;7.90;99.90;;;;;;5001435;28;89869;-33
2022/12/28 07:10:51;;;;;;;8.07;7.30;;;7.80;99.90;;;;;;5001192;28;90665;-32
2022/12/28 07:13:17;;;;;;;9.90;9.00;;;7.80;99.90;;;;;;5001134;28;89281;-34
2022/12/28 07:15:43;;;;;;;7.93;7.18;;;7.90;99.90;;;;;;5001421;28;89311;-31
2022/12/28 07:18:08;;;;;;;9.07;7.60;;;7.80;99.90;;;;;;5001234;28;91008;-31
2022/12/28 07:20:34;;;;;;;10.90;8.45;;;7.90;99.90;;;;;;5001274;28;90041;-31
2022/12/28 07:22:59;;;;;;;9.30;8.50;;;8.00;99.90;;;;;;5000795;28;89205;-32
2022/12/28 07:25:25;;;;;;;9.90;8.93;;;7.90;99.90;;;;;;5001329;28;89259;-32
2022/12/28 07:27:51;;;;;;;10.13;9.13;;;7.90;99.90;;;;;;5001646;28;90409;-32
2022/12/28 07:30:16;;;;;;;11.77;8.98;;;8.00;99.90;;;;;;5001023;28;89379;-31
2022/12/28 07:32:42;;;;;;;10.35;9.35;;;7.90;99.90;;;;;;5000717;28;89074;-32
2022/12/28 07:35:08;;;;;;;11.10;9.98;;;8.00;99.90;;;;;;5000674;28;89935;-32
2022/12/28 07:37:34;;;;;;;10.70;9.60;;;8.00;99.90;;;;;;5000052;28;89937;-32
2022/12/28 07:39:59;;;;;;;9.98;9.05;;;8.00;99.90;;;;;;5000548;28;90312;-33
2022/12/28 07:42:27;;;;;;;14.00;10.50;;;8.10;99.90;;;;;;5000695;28;89494;-32
2022/12/28 07:44:53;;;;;;;12.63;11.43;;;8.10;99.90;;;;;;5000636;28;89947;-32
2022/12/28 07:47:18;;;;;;;13.68;11.88;;;8.20;99.90;;;;;;4999906;28;90366;-31
2022/12/28 07:49:44;;;;;;;11.88;10.55;;;8.20;99.90;;;;;;4999543;28;89885;-34
2022/12/28 07:52:09;;;;;;;13.32;12.05;;;8.20;99.90;;;;;;5000482;28;90150;-30
2022/12/28 07:54:35;;;;;;;12.43;10.98;;;8.30;99.90;;;;;;5000347;28;89804;-34
2022/12/28 07:57:01;;;;;;;12.77;10.95;;;8.30;99.90;;;;;;4999718;28;90225;-33
2022/12/28 07:59:26;;;;;;;11.68;10.57;;;8.30;99.90;;;;;;4998675;28;90941;-31
2022/12/28 08:01:52;;;;;;;12.70;11.40;;;8.30;99.90;;;;;;4999929;28;90435;-33
2022/12/28 08:04:18;;;;;;;17.33;12.95;;;8.30;99.90;;;;;;4999776;28;88909;-34
2022/12/28 08:06:45;;;;;;;13.20;11.77;;;8.30;99.90;;;;;;4999058;28;90336;-33
2022/12/28 08:09:13;;;;;;;17.42;12.27;;;8.30;99.90;;;;;;5000575;28;89635;-31
2022/12/28 08:11:43;;;;;;;15.32;13.43;;;8.30;99.90;;;;;;4999809;28;89737;-35
2022/12/28 08:14:10;;;;;;;14.35;12.82;;;8.30;99.90;;;;;;5003492;28;89438;-32
2022/12/28 08:16:39;;;;;;;15.95;10.93;;;8.30;99.90;;;;;;5002535;28;90341;-35
2022/12/28 08:19:06;;;;;;;13.68;10.55;;;8.30;99.90;;;;;;5006109;28;89162;-33
2022/12/28 08:21:37;;;;;;;14.27;12.85;;;8.30;99.90;;;;;;5007856;28;88879;-34
2022/12/28 08:24:03;;;;;;;13.52;11.77;;;8.40;99.90;;;;;;5018722;28;88800;-35
2022/12/28 08:26:32;;;;;;;14.63;11.88;;;8.40;99.90;;;;;;5017074;28;92533;-34
2022/12/28 08:29:00;;;;;;;15.18;13.57;;;8.40;99.90;;;;;;5018494;28;87926;-34
2022/12/28 08:31:29;;;;;;;14.35;12.93;;;8.50;99.90;;;;;;5017386;27;89245;-34
2022/12/28 08:33:56;;;;;;;12.57;11.27;;;8.40;99.90;;;;;;5014185;28;87896;-34
2022/12/28 08:36:23;;;;;;;12.43;10.98;;;8.40;99.90;;;;;;5005345;27;90379;-33
2022/12/28 08:38:49;;;;;;;11.85;10.68;;;8.40;99.90;;;;;;5002883;28;89541;-34
2022/12/28 08:41:17;;;;;;;15.23;11.27;;;8.40;99.90;;;;;;5006169;28;89593;-31
2022/12/28 08:43:43;;;;;;;13.13;10.65;;;8.50;99.90;;;;;;5002338;28;89165;-30
2022/12/28 08:46:16;;;;;;;13.63;11.02;;;8.40;99.90;;;;;;5005804;28;90270;-34
2022/12/28 08:48:42;;;;;;;11.45;10.35;;;8.40;99.90;;;;;;5001589;28;89242;-31
2022/12/28 08:51:13;;;;;;;12.70;10.25;;;8.50;99.90;;;;;;5005344;28;90750;-33
2022/12/28 08:53:40;;;;;;;8.88;8.05;;;8.40;99.90;;;;;;5004775;28;88411;-31
2022/12/28 08:56:11;;;;;;;10.68;9.60;;;8.50;99.90;;;;;;5016483;28;90592;-32
2022/12/28 08:58:38;;;;;;;9.13;8.23;;;8.50;99.90;;;;;;5017940;27;88361;-31
2022/12/28 09:01:06;;;;;;;8.35;7.53;;;8.50;99.90;;;;;;5016509;28;88758;-32
2022/12/28 09:03:34;;;;;;;9.82;8.80;;;8.50;99.90;;;;;;5012866;28;87726;-31
2022/12/28 09:06:02;;;;;;;12.10;9.57;;;8.50;99.90;;;;;;5013559;28;90085;-32
2022/12/28 09:08:28;;;;;;;11.05;8.93;;;8.40;99.90;;;;;;5012230;28;90319;-31
2022/12/28 09:10:53;;;;;;;10.02;7.47;;;8.50;99.90;;;;;;5012726;28;89332;-32
2022/12/28 09:13:19;;;;;;;10.43;8.85;;;8.50;99.90;;;;;;5009482;28;88839;-31
2022/12/28 09:15:58;;;;;;;9.23;8.27;;;8.50;99.90;;;;;;5011090;28;90325;-33
2022/12/28 09:18:24;;;;;;;9.35;8.23;;;8.60;99.90;;;;;;5021153;28;89520;-36
2022/12/28 09:20:49;;;;;;;8.88;7.97;;;8.50;99.90;;;;;;5008734;28;89524;-32
2022/12/28 09:23:15;;;;;;;9.38;8.57;;;8.60;99.90;;;;;;5014810;28;88714;-32
2022/12/28 09:25:40;;;;;;;9.63;8.63;;;8.60;99.90;;;;;;5011353;28;91768;-33
2022/12/28 09:28:06;;;;;;;8.57;7.63;;;8.60;99.90;;;;;;5010485;28;89676;-32
2022/12/28 09:30:31;;;;;;;9.60;7.72;;;8.60;99.90;;;;;;5012362;28;89507;-34
2022/12/28 09:35:41;;;;;;;8.50;7.85;;;8.70;99.90;;;;;;5002221;28;88873;-34
2022/12/28 09:38:06;;;;;;;8.50;7.68;;;8.70;99.90;;;;;;4999308;28;90818;-31
2022/12/28 09:40:36;;;;;;;9.77;8.80;;;8.70;99.90;;;;;;5001344;28;90611;-34
2022/12/28 09:43:08;;;;;;;8.35;7.55;;;8.70;99.90;;;;;;5000399;28;88000;-33
2022/12/28 09:45:34;;;;;;;8.77;7.88;;;8.70;99.90;;;;;;5000093;28;90192;-32
2022/12/28 09:48:07;;;;;;;8.10;7.30;;;8.70;99.90;;;;;;5000110;27;88947;-34
2022/12/28 09:50:34;;;;;;;8.48;7.68;;;8.70;99.90;;;;;;5005910;28;88965;-33
2022/12/28 09:53:21;;;;;;;9.57;7.82;;;8.70;99.90;;;;;;5013873;27;88099;-31
2022/12/28 09:56:23;;;;;;;7.38;6.68;;;8.70;99.90;;;;;;5015115;27;90210;-33
2022/12/28 09:58:50;;;;;;;8.73;7.93;;;8.80;99.90;;;;;;5001901;27;89018;-32
2022/12/28 10:01:17;;;;;;;9.18;8.35;;;8.80;99.90;;;;;;4996557;28;89667;-34
2022/12/28 10:03:44;;;;;;;13.68;8.02;;;8.80;99.90;;;;;;5013389;28;89010;-32
2022/12/28 10:06:23;;;;;;;9.73;8.73;;;8.90;99.90;;;;;;5016198;28;88874;-34
2022/12/28 10:08:52;;;;;;;7.60;6.82;;;8.90;99.90;;;;;;5015778;27;89743;-34
2022/12/28 10:11:22;;;;;;;9.57;8.68;;;9.00;99.90;;;;;;5014497;28;89951;-32
2022/12/28 10:13:56;;;;;;;11.10;9.82;;;8.90;99.90;;;;;;5015836;27;89650;-32
2022/12/28 10:16:25;;;;;;;8.35;7.53;;;8.90;99.90;;;;;;5016457;27;90529;-32
2022/12/28 10:18:51;;;;;;;8.23;7.20;;;9.00;99.90;;;;;;5022854;27;89588;-31
2022/12/28 10:21:19;;;;;;;9.43;8.52;;;9.00;99.90;;;;;;5031301;27;89764;-32
2022/12/28 10:23:47;;;;;;;8.23;7.43;;;9.00;99.90;;;;;;5029558;27;87973;-34
2022/12/28 10:26:16;;;;;;;7.95;7.15;;;9.00;99.90;;;;;;5030396;27;89148;-35
2022/12/28 10:28:52;;;;;;;9.20;8.35;;;9.00;99.90;;;;;;5030884;27;90797;-31
2022/12/28 10:31:30;;;;;;;9.38;7.68;;;9.00;99.90;;;;;;5031176;27;89972;-31
2022/12/28 10:33:55;;;;;;;7.25;6.65;;;9.10;99.90;;;;;;5031542;27;88125;-31
2022/12/28 10:36:22;;;;;;;7.47;6.47;;;9.00;99.90;;;;;;5031596;27;89797;-31
2022/12/28 10:38:50;;;;;;;14.48;8.07;;;9.00;99.90;;;;;;5020506;27;89815;-31
2022/12/28 10:41:18;;;;;;;8.55;7.78;;;9.00;99.90;;;;;;5030095;28;88930;-34
2022/12/28 10:43:52;;;;;;;8.23;7.05;;;9.00;99.90;;;;;;5017094;28;89899;-33
2022/12/28 10:46:20;;;;;;;7.88;7.20;;;9.10;99.90;;;;;;5018148;27;88286;-32
2022/12/28 10:48:48;;;;;;;;;;;9.00;99.90;;;;;;5017334;28;89838;-32
2022/12/28 10:51:22;;;;;;;6.97;5.97;;;9.10;99.90;;;;;;5013342;28;89531;-32
2022/12/28 10:53:50;;;;;;;8.48;6.38;;;9.10;99.90;;;;;;5026339;28;88417;-33
2022/12/28 10:56:23;;;;;;;6.87;6.27;;;9.10;99.90;;;;;;5023453;27;89671;-31
2022/12/28 10:58:52;;;;;;;6.80;5.53;;;9.10;99.90;;;;;;5024878;28;89452;-32
2022/12/28 11:01:22;;;;;;;;;;;9.10;99.90;;;;;;5012921;27;88075;-32
2022/12/28 11:04:25;;;;;;;6.13;5.53;;;9.10;99.90;;;;;;5012463;28;88769;-33
2022/12/28 11:07:00;;;;;;;6.97;6.00;;;9.10;99.90;;;;;;5007614;28;90366;-31
2022/12/28 11:09:27;;;;;;;5.43;4.97;;;9.10;99.90;;;;;;5007785;28;89564;-32
2022/12/28 11:11:55;;;;;;;5.47;5.00;;;9.10;99.90;;;;;;5010331;28;89449;-33
2022/12/28 11:14:34;;;;;;;5.88;5.38;;;9.10;99.90;;;;;;5009737;28;88568;-34
2022/12/28 11:17:21;;;;;;;7.25;5.57;;;9.20;99.90;;;;;;5010537;28;89846;-31
2022/12/28 11:19:50;;;;;;;5.22;4.72;;;9.20;99.90;;;;;;5010253;28;91308;-31
2022/12/28 11:22:22;;;;;;;5.70;5.20;;;9.20;99.90;;;;;;5009069;28;90503;-31
2022/12/28 11:24:48;;;;;;;4.32;4.00;;;9.20;99.90;;;;;;5006957;28;89368;-33
2022/12/28 11:27:17;;;;;;;4.88;4.43;;;9.20;99.90;;;;;;5010341;28;90958;-32
2022/12/28 11:29:49;;;;;;;5.35;4.85;;;9.20;99.90;;;;;;5010346;28;89754;-31
2022/12/28 11:32:24;;;;;;;4.95;4.45;;;9.20;99.90;;;;;;5010554;28;89245;-33
2022/12/28 11:34:52;;;;;;;5.55;4.97;;;9.20;99.90;;;;;;5010796;28;87623;-32
2022/12/28 11:37:18;;;;;;;7.47;5.30;;;9.20;99.90;;;;;;5010649;28;89192;-33
2022/12/28 11:39:45;;;;;;;4.40;4.00;;;9.10;99.90;;;;;;5008951;28;89741;-32
2022/12/28 11:42:31;;;;;;;4.65;4.30;;;9.20;99.90;;;;;;5009237;28;89234;-34
2022/12/28 11:45:04;;;;;;;4.82;4.15;;;9.20;99.90;;;;;;5011030;28;88873;-33
2022/12/28 11:47:35;;;;;;;5.30;4.47;;;9.20;99.90;;;;;;5011277;28;89991;-32
2022/12/28 11:50:32;;;;;;;7.13;5.45;;;9.20;99.90;;;;;;5010258;28;89504;-33
2022/12/28 11:52:59;;;;;;;5.75;5.25;;;9.20;99.90;;;;;;5012275;28;88063;-32
2022/12/28 11:55:25;;;;;;;4.75;3.95;;;9.20;99.90;;;;;;5011157;28;88039;-34
2022/12/28 11:57:52;;;;;;;5.53;5.05;;;9.20;99.90;;;;;;5009102;28;89921;-32
2022/12/28 12:00:18;;;;;;;4.90;4.40;;;9.20;99.90;;;;;;5012421;28;89713;-31
2022/12/28 12:02:46;;;;;;;4.47;4.15;;;9.20;99.90;;;;;;5012143;28;89355;-32
2022/12/28 12:05:34;;;;;;;4.97;4.50;;;9.30;99.90;;;;;;5013885;28;88511;-31
2022/12/28 12:08:00;;;;;;;5.20;4.70;;;9.20;99.90;;;;;;5020790;27;90237;-31
2022/12/28 12:10:28;;;;;;;4.63;4.25;;;9.10;99.90;;;;;;5010400;28;90527;-34
2022/12/28 12:12:54;;;;;;;4.40;4.00;;;9.20;99.90;;;;;;5011336;28;90600;-32
2022/12/28 12:15:37;;;;;;;4.07;3.78;;;9.20;99.90;;;;;;5011914;28;88169;-32
2022/12/28 12:18:05;;;;;;;4.07;3.72;;;9.30;99.90;;;;;;5011963;28;89266;-31
2022/12/28 12:20:45;;;;;;;3.75;3.45;;;9.20;99.90;;;;;;5011785;28;89122;-34
2022/12/28 12:23:32;;;;;;;5.40;3.85;;;9.20;99.90;;;;;;5009422;28;89509;-32
2022/12/28 12:26:08;;;;;;;3.58;3.28;;;9.30;99.90;;;;;;5010609;28;87498;-31
2022/12/28 12:28:45;;;;;;;3.38;3.08;;;9.20;99.90;;;;;;5012496;28;90872;-32
2022/12/28 12:31:24;;;;;;;7.80;3.70;;;9.20;99.90;;;;;;5011469;28;89885;-31
2022/12/28 12:33:51;;;;;;;3.85;3.45;;;9.20;99.90;;;;;;5010764;28;89444;-33
2022/12/28 12:36:23;;;;;;;3.63;3.33;;;9.20;99.90;;;;;;5010883;28;88484;-33
2022/12/28 12:39:28;;;;;;;3.80;3.50;;;9.30;99.90;;;;;;5010609;28;90799;-33
2022/12/28 12:42:07;;;;;;;3.75;3.45;;;9.20;99.90;;;;;;5002225;28;89363;-32
2022/12/28 12:44:44;;;;;;;3.97;3.67;;;9.20;99.90;;;;;;5010064;28;88321;-31
2022/12/28 12:47:35;;;;;;;4.63;4.13;;;9.20;99.90;;;;;;5009983;28;87494;-32
2022/12/28 12:50:28;;;;;;;4.07;3.78;;;9.20;99.90;;;;;;5010733;28;90331;-34
2022/12/28 12:53:15;;;;;;;3.90;3.58;;;9.20;99.90;;;;;;5011082;28;89654;-31
2022/12/28 12:56:09;;;;;;;3.78;3.42;;;9.20;99.90;;;;;;5010298;28;89443;-32
2022/12/28 12:59:03;;;;;;;3.50;3.20;;;9.30;99.90;;;;;;4998152;28;88184;-32
2022/12/28 13:01:31;;;;;;;3.90;3.60;;;9.20;99.90;;;;;;5009234;28;90492;-33
2022/12/28 13:04:23;;;;;;;2.72;2.53;;;9.30;99.90;;;;;;5009514;28;90667;-32
2022/12/28 13:06:57;;;;;;;2.90;2.63;;;9.30;99.90;;;;;;5010253;28;90883;-34
2022/12/28 13:09:26;;;;;;;2.92;2.72;;;9.20;99.90;;;;;;5009904;28;87580;-33
2022/12/28 13:11:52;;;;;;;3.80;3.50;;;9.20;99.90;;;;;;5009013;28;90306;-32
2022/12/28 13:14:20;;;;;;;2.53;2.33;;;9.20;99.90;;;;;;5008850;28;89361;-32
2022/12/28 13:16:52;;;;;;;2.80;2.60;;;9.20;99.90;;;;;;5022195;28;90934;-32
2022/12/28 13:19:22;;;;;;;3.35;3.03;;;9.20;99.90;;;;;;5008482;28;87563;-32
2022/12/28 13:21:48;;;;;;;2.50;2.30;;;9.20;99.90;;;;;;5010115;28;89482;-31
2022/12/28 13:24:34;;;;;;;5.22;2.92;;;9.20;99.90;;;;;;5009940;28;89294;-32
2022/12/28 13:27:00;;;;;;;3.78;2.60;;;9.20;99.90;;;;;;5024062;28;89025;-32
2022/12/28 13:29:31;;;;;;;3.35;3.05;;;9.20;99.90;;;;;;5006627;28;89072;-33
2022/12/28 13:31:57;;;;;;;3.38;3.10;;;9.20;99.90;;;;;;5009090;28;90105;-34
2022/12/28 13:34:28;;;;;;;3.03;2.50;;;9.20;99.90;;;;;;5007927;28;90200;-32
2022/12/28 13:36:57;;;;;;;2.65;2.45;;;9.20;99.90;;;;;;5007465;28;90291;-32
2022/12/28 13:39:27;;;;;;;3.13;2.63;;;9.20;99.90;;;;;;5006714;28;88724;-32